sensor_id;sensor_type;location;lat;lon;timestamp;P1;durP1;ratioP1;P2;durP2;ratioP2
19869;SDS011;10097;50.862;4.696;2023-06-14T00:00:20;11.48;;;4.30;;
19869;SDS011;10097;50.862;4.696;2023-06-14T00:02:46;12.10;;;4.50;;
19869;SDS011;10097;50.862;4.696;2023-06-14T00:05:13;10.57;;;4.18;;
19869;SDS011;10097;50.862;4.696;2023-06-14T00:07:43;9.73;;;4.50;;
19869;SDS011;10097;50.862;4.696;2023-06-14T00:10:11;9.50;;;4.60;;
19869;SDS011;10097;50.862;4.696;2023-06-14T00:12:39;9.43;;;4.07;;
19869;SDS011;10097;50.862;4.696;2023-06-14T00:15:07;18.42;;;4.57;;
19869;SDS011;10097;50.862;4.696;2023-06-14T00:17:36;12.02;;;4.47;;
19869;SDS011;10097;50.862;4.696;2023-06-14T00:20:04;11.40;;;4.22;;
19869;SDS011;10097;50.862;4.696;2023-06-14T00:22:33;8.77;;;4.30;;
19869;SDS011;10097;50.862;4.696;2023-06-14T00:24:59;8.27;;;4.22;;
19869;SDS011;10097;50.862;4.696;2023-06-14T00:27:24;11.73;;;4.28;;
19869;SDS011;10097;50.862;4.696;2023-06-14T00:29:53;11.48;;;4.20;;
19869;SDS011;10097;50.862;4.696;2023-06-14T00:32:19;9.32;;;4.00;;
19869;SDS011;10097;50.862;4.696;2023-06-14T00:34:44;9.65;;;4.32;;
19869;SDS011;10097;50.862;4.696;2023-06-14T00:37:10;9.90;;;5.22;;
19869;SDS011;10097;50.862;4.696;2023-06-14T00:39:37;9.13;;;4.32;;
19869;SDS011;10097;50.862;4.696;2023-06-14T00:42:03;10.43;;;4.90;;
19869;SDS011;10097;50.862;4.696;2023-06-14T00:44:30;9.73;;;4.75;;
19869;SDS011;10097;50.862;4.696;2023-06-14T00:46:56;13.85;;;4.80;;
19869;SDS011;10097;50.862;4.696;2023-06-14T00:49:21;11.25;;;5.00;;
19869;SDS011;10097;50.862;4.696;2023-06-14T00:51:47;11.75;;;4.57;;
19869;SDS011;10097;50.862;4.696;2023-06-14T00:54:13;10.32;;;4.40;;
19869;SDS011;10097;50.862;4.696;2023-06-14T00:56:39;9.73;;;4.03;;
19869;SDS011;10097;50.862;4.696;2023-06-14T00:59:07;10.90;;;4.72;;
19869;SDS011;10097;50.862;4.696;2023-06-14T01:01:33;13.07;;;4.75;;
19869;SDS011;10097;50.862;4.696;2023-06-14T01:03:59;15.90;;;4.80;;
19869;SDS011;10097;50.862;4.696;2023-06-14T01:11:50;8.20;;;4.35;;
19869;SDS011;10097;50.862;4.696;2023-06-14T01:14:26;10.85;;;4.60;;
19869;SDS011;10097;50.862;4.696;2023-06-14T01:16:53;10.48;;;4.80;;
19869;SDS011;10097;50.862;4.696;2023-06-14T01:19:25;10.73;;;4.47;;
19869;SDS011;10097;50.862;4.696;2023-06-14T01:21:53;10.75;;;4.57;;
19869;SDS011;10097;50.862;4.696;2023-06-14T01:24:20;8.38;;;4.25;;
19869;SDS011;10097;50.862;4.696;2023-06-14T01:26:51;10.55;;;4.78;;
19869;SDS011;10097;50.862;4.696;2023-06-14T01:29:21;9.15;;;4.65;;
19869;SDS011;10097;50.862;4.696;2023-06-14T01:31:50;9.07;;;4.43;;
19869;SDS011;10097;50.862;4.696;2023-06-14T01:34:16;9.75;;;4.40;;
19869;SDS011;10097;50.862;4.696;2023-06-14T01:36:43;9.88;;;4.90;;
19869;SDS011;10097;50.862;4.696;2023-06-14T01:39:14;9.65;;;5.03;;
19869;SDS011;10097;50.862;4.696;2023-06-14T01:41:41;16.42;;;5.32;;
19869;SDS011;10097;50.862;4.696;2023-06-14T01:44:07;9.75;;;4.38;;
19869;SDS011;10097;50.862;4.696;2023-06-14T01:46:34;8.85;;;5.03;;
19869;SDS011;10097;50.862;4.696;2023-06-14T01:49:01;10.35;;;4.85;;
19869;SDS011;10097;50.862;4.696;2023-06-14T01:51:27;9.60;;;4.97;;
19869;SDS011;10097;50.862;4.696;2023-06-14T01:53:52;14.70;;;4.93;;
19869;SDS011;10097;50.862;4.696;2023-06-14T01:56:18;11.45;;;5.45;;
19869;SDS011;10097;50.862;4.696;2023-06-14T01:58:44;13.23;;;4.85;;
19869;SDS011;10097;50.862;4.696;2023-06-14T02:01:10;12.23;;;5.53;;
19869;SDS011;10097;50.862;4.696;2023-06-14T02:03:37;9.00;;;4.68;;
19869;SDS011;10097;50.862;4.696;2023-06-14T02:06:03;9.05;;;4.70;;
19869;SDS011;10097;50.862;4.696;2023-06-14T02:08:29;13.55;;;4.90;;
19869;SDS011;10097;50.862;4.696;2023-06-14T02:10:55;12.55;;;4.75;;
19869;SDS011;10097;50.862;4.696;2023-06-14T02:13:21;12.30;;;5.35;;
19869;SDS011;10097;50.862;4.696;2023-06-14T02:15:46;11.05;;;5.20;;
19869;SDS011;10097;50.862;4.696;2023-06-14T02:18:16;13.50;;;6.22;;
19869;SDS011;10097;50.862;4.696;2023-06-14T02:20:41;10.75;;;5.35;;
19869;SDS011;10097;50.862;4.696;2023-06-14T02:23:07;9.85;;;4.55;;
19869;SDS011;10097;50.862;4.696;2023-06-14T02:25:33;14.13;;;5.95;;
19869;SDS011;10097;50.862;4.696;2023-06-14T02:27:58;13.90;;;5.53;;
19869;SDS011;10097;50.862;4.696;2023-06-14T02:30:24;10.82;;;5.10;;
19869;SDS011;10097;50.862;4.696;2023-06-14T02:32:50;11.10;;;4.75;;
19869;SDS011;10097;50.862;4.696;2023-06-14T02:35:18;13.65;;;5.40;;
19869;SDS011;10097;50.862;4.696;2023-06-14T02:37:45;12.73;;;5.57;;
19869;SDS011;10097;50.862;4.696;2023-06-14T02:40:11;10.80;;;6.25;;
19869;SDS011;10097;50.862;4.696;2023-06-14T02:42:37;18.77;;;6.15;;
19869;SDS011;10097;50.862;4.696;2023-06-14T02:45:03;19.73;;;5.70;;
19869;SDS011;10097;50.862;4.696;2023-06-14T02:47:29;11.18;;;5.43;;
19869;SDS011;10097;50.862;4.696;2023-06-14T02:49:56;13.52;;;6.07;;
19869;SDS011;10097;50.862;4.696;2023-06-14T02:52:22;12.60;;;5.45;;
19869;SDS011;10097;50.862;4.696;2023-06-14T02:54:47;12.20;;;6.03;;
19869;SDS011;10097;50.862;4.696;2023-06-14T02:57:13;12.80;;;5.85;;
19869;SDS011;10097;50.862;4.696;2023-06-14T02:59:40;16.42;;;6.13;;
19869;SDS011;10097;50.862;4.696;2023-06-14T03:02:06;15.18;;;5.90;;
19869;SDS011;10097;50.862;4.696;2023-06-14T03:04:31;11.90;;;5.65;;
19869;SDS011;10097;50.862;4.696;2023-06-14T03:07:02;11.70;;;6.03;;
19869;SDS011;10097;50.862;4.696;2023-06-14T03:09:34;13.32;;;6.03;;
19869;SDS011;10097;50.862;4.696;2023-06-14T03:12:03;14.00;;;6.13;;
19869;SDS011;10097;50.862;4.696;2023-06-14T03:14:32;12.23;;;5.72;;
19869;SDS011;10097;50.862;4.696;2023-06-14T03:16:58;11.63;;;5.68;;
19869;SDS011;10097;50.862;4.696;2023-06-14T03:19:24;15.32;;;5.82;;
19869;SDS011;10097;50.862;4.696;2023-06-14T03:21:51;15.63;;;6.65;;
19869;SDS011;10097;50.862;4.696;2023-06-14T03:24:17;12.48;;;6.10;;
19869;SDS011;10097;50.862;4.696;2023-06-14T03:26:43;14.82;;;5.63;;
19869;SDS011;10097;50.862;4.696;2023-06-14T03:29:08;13.60;;;6.00;;
19869;SDS011;10097;50.862;4.696;2023-06-14T03:31:34;12.02;;;6.72;;
19869;SDS011;10097;50.862;4.696;2023-06-14T03:34:00;12.60;;;5.70;;
19869;SDS011;10097;50.862;4.696;2023-06-14T03:36:26;13.55;;;6.45;;
19869;SDS011;10097;50.862;4.696;2023-06-14T03:38:55;15.48;;;6.03;;
19869;SDS011;10097;50.862;4.696;2023-06-14T03:41:21;11.07;;;6.00;;
19869;SDS011;10097;50.862;4.696;2023-06-14T03:43:47;10.90;;;6.22;;
19869;SDS011;10097;50.862;4.696;2023-06-14T03:46:12;11.20;;;6.18;;
19869;SDS011;10097;50.862;4.696;2023-06-14T03:48:38;13.70;;;6.00;;
19869;SDS011;10097;50.862;4.696;2023-06-14T03:51:04;13.15;;;6.13;;
19869;SDS011;10097;50.862;4.696;2023-06-14T03:53:30;13.65;;;5.63;;
19869;SDS011;10097;50.862;4.696;2023-06-14T03:55:56;14.55;;;6.18;;
19869;SDS011;10097;50.862;4.696;2023-06-14T03:58:22;11.15;;;5.68;;
19869;SDS011;10097;50.862;4.696;2023-06-14T04:00:48;12.23;;;6.60;;
19869;SDS011;10097;50.862;4.696;2023-06-14T04:03:13;16.20;;;6.25;;
19869;SDS011;10097;50.862;4.696;2023-06-14T04:05:40;12.82;;;6.20;;
19869;SDS011;10097;50.862;4.696;2023-06-14T04:08:14;11.93;;;5.82;;
19869;SDS011;10097;50.862;4.696;2023-06-14T04:10:40;15.90;;;6.43;;
19869;SDS011;10097;50.862;4.696;2023-06-14T04:13:06;14.48;;;6.22;;
19869;SDS011;10097;50.862;4.696;2023-06-14T04:15:32;14.80;;;6.75;;
19869;SDS011;10097;50.862;4.696;2023-06-14T04:17:58;11.13;;;6.03;;
19869;SDS011;10097;50.862;4.696;2023-06-14T04:20:25;10.90;;;5.72;;
19869;SDS011;10097;50.862;4.696;2023-06-14T04:22:51;12.07;;;5.70;;
19869;SDS011;10097;50.862;4.696;2023-06-14T04:25:22;12.88;;;5.80;;
19869;SDS011;10097;50.862;4.696;2023-06-14T04:27:48;14.35;;;7.30;;
19869;SDS011;10097;50.862;4.696;2023-06-14T04:30:14;11.38;;;6.20;;
19869;SDS011;10097;50.862;4.696;2023-06-14T04:32:40;12.48;;;6.32;;
19869;SDS011;10097;50.862;4.696;2023-06-14T04:35:07;14.63;;;6.78;;
19869;SDS011;10097;50.862;4.696;2023-06-14T04:37:33;10.38;;;5.95;;
19869;SDS011;10097;50.862;4.696;2023-06-14T04:39:59;12.05;;;5.78;;
19869;SDS011;10097;50.862;4.696;2023-06-14T04:42:25;12.77;;;6.47;;
19869;SDS011;10097;50.862;4.696;2023-06-14T04:44:55;13.45;;;6.28;;
19869;SDS011;10097;50.862;4.696;2023-06-14T04:47:23;12.13;;;6.38;;
19869;SDS011;10097;50.862;4.696;2023-06-14T04:49:54;13.77;;;6.05;;
19869;SDS011;10097;50.862;4.696;2023-06-14T04:52:22;11.68;;;6.30;;
19869;SDS011;10097;50.862;4.696;2023-06-14T04:54:48;11.18;;;5.97;;
19869;SDS011;10097;50.862;4.696;2023-06-14T04:57:13;11.45;;;5.78;;
19869;SDS011;10097;50.862;4.696;2023-06-14T04:59:42;15.93;;;6.25;;
19869;SDS011;10097;50.862;4.696;2023-06-14T05:02:09;12.32;;;6.63;;
19869;SDS011;10097;50.862;4.696;2023-06-14T05:04:35;13.05;;;6.30;;
19869;SDS011;10097;50.862;4.696;2023-06-14T05:07:05;12.18;;;5.80;;
19869;SDS011;10097;50.862;4.696;2023-06-14T05:09:34;16.60;;;6.80;;
19869;SDS011;10097;50.862;4.696;2023-06-14T05:12:00;13.30;;;6.40;;
19869;SDS011;10097;50.862;4.696;2023-06-14T05:14:26;15.93;;;6.72;;
19869;SDS011;10097;50.862;4.696;2023-06-14T05:16:52;18.02;;;6.90;;
19869;SDS011;10097;50.862;4.696;2023-06-14T05:19:18;13.68;;;6.30;;
19869;SDS011;10097;50.862;4.696;2023-06-14T05:21:45;18.13;;;6.50;;
19869;SDS011;10097;50.862;4.696;2023-06-14T05:24:12;15.25;;;6.45;;
19869;SDS011;10097;50.862;4.696;2023-06-14T05:26:38;11.82;;;5.90;;
19869;SDS011;10097;50.862;4.696;2023-06-14T05:29:04;14.82;;;7.03;;
19869;SDS011;10097;50.862;4.696;2023-06-14T05:31:30;12.45;;;6.18;;
19869;SDS011;10097;50.862;4.696;2023-06-14T05:33:56;16.92;;;6.50;;
19869;SDS011;10097;50.862;4.696;2023-06-14T05:36:21;16.88;;;6.40;;
19869;SDS011;10097;50.862;4.696;2023-06-14T05:38:47;14.93;;;6.63;;
19869;SDS011;10097;50.862;4.696;2023-06-14T05:41:13;10.75;;;6.10;;
19869;SDS011;10097;50.862;4.696;2023-06-14T05:43:39;13.88;;;6.38;;
19869;SDS011;10097;50.862;4.696;2023-06-14T05:46:05;13.73;;;6.93;;
19869;SDS011;10097;50.862;4.696;2023-06-14T05:48:30;13.55;;;6.65;;
19869;SDS011;10097;50.862;4.696;2023-06-14T05:50:56;12.55;;;6.85;;
19869;SDS011;10097;50.862;4.696;2023-06-14T05:53:22;13.02;;;6.75;;
19869;SDS011;10097;50.862;4.696;2023-06-14T05:55:48;15.13;;;6.15;;
19869;SDS011;10097;50.862;4.696;2023-06-14T05:58:20;14.45;;;6.57;;
19869;SDS011;10097;50.862;4.696;2023-06-14T06:00:48;15.25;;;6.82;;
19869;SDS011;10097;50.862;4.696;2023-06-14T06:03:15;15.50;;;6.30;;
19869;SDS011;10097;50.862;4.696;2023-06-14T06:05:41;20.40;;;6.68;;
19869;SDS011;10097;50.862;4.696;2023-06-14T06:08:07;15.60;;;5.75;;
19869;SDS011;10097;50.862;4.696;2023-06-14T06:10:32;19.85;;;7.13;;
19869;SDS011;10097;50.862;4.696;2023-06-14T06:12:58;14.93;;;5.97;;
19869;SDS011;10097;50.862;4.696;2023-06-14T06:15:24;20.08;;;6.35;;
19869;SDS011;10097;50.862;4.696;2023-06-14T06:17:49;16.48;;;6.28;;
19869;SDS011;10097;50.862;4.696;2023-06-14T06:20:16;13.93;;;5.93;;
19869;SDS011;10097;50.862;4.696;2023-06-14T06:22:42;20.70;;;7.35;;
19869;SDS011;10097;50.862;4.696;2023-06-14T06:25:08;15.25;;;6.40;;
19869;SDS011;10097;50.862;4.696;2023-06-14T06:27:35;17.25;;;5.47;;
19869;SDS011;10097;50.862;4.696;2023-06-14T06:30:05;15.38;;;5.93;;
19869;SDS011;10097;50.862;4.696;2023-06-14T06:32:31;19.05;;;5.43;;
19869;SDS011;10097;50.862;4.696;2023-06-14T06:35:05;19.17;;;6.75;;
19869;SDS011;10097;50.862;4.696;2023-06-14T06:37:32;12.50;;;5.72;;
19869;SDS011;10097;50.862;4.696;2023-06-14T06:39:57;12.00;;;5.47;;
19869;SDS011;10097;50.862;4.696;2023-06-14T06:42:38;19.85;;;5.63;;
19869;SDS011;10097;50.862;4.696;2023-06-14T06:45:04;20.13;;;5.95;;
19869;SDS011;10097;50.862;4.696;2023-06-14T06:47:36;22.50;;;5.82;;
19869;SDS011;10097;50.862;4.696;2023-06-14T06:50:01;17.67;;;6.07;;
19869;SDS011;10097;50.862;4.696;2023-06-14T06:52:27;25.58;;;5.78;;
19869;SDS011;10097;50.862;4.696;2023-06-14T06:54:55;18.27;;;6.00;;
19869;SDS011;10097;50.862;4.696;2023-06-14T06:57:22;16.58;;;5.35;;
19869;SDS011;10097;50.862;4.696;2023-06-14T06:59:48;12.93;;;5.65;;
19869;SDS011;10097;50.862;4.696;2023-06-14T07:02:14;12.18;;;5.30;;
19869;SDS011;10097;50.862;4.696;2023-06-14T07:04:40;8.98;;;4.80;;
19869;SDS011;10097;50.862;4.696;2023-06-14T07:07:06;10.25;;;5.32;;
19869;SDS011;10097;50.862;4.696;2023-06-14T07:09:31;12.38;;;5.65;;
19869;SDS011;10097;50.862;4.696;2023-06-14T07:11:57;15.07;;;6.28;;
19869;SDS011;10097;50.862;4.696;2023-06-14T07:14:23;17.85;;;5.80;;
19869;SDS011;10097;50.862;4.696;2023-06-14T07:16:49;17.05;;;5.85;;
19869;SDS011;10097;50.862;4.696;2023-06-14T07:19:14;10.68;;;5.60;;
19869;SDS011;10097;50.862;4.696;2023-06-14T07:21:40;13.35;;;6.03;;
19869;SDS011;10097;50.862;4.696;2023-06-14T07:24:06;16.33;;;6.30;;
19869;SDS011;10097;50.862;4.696;2023-06-14T07:26:32;13.52;;;5.75;;
19869;SDS011;10097;50.862;4.696;2023-06-14T07:28:58;21.67;;;5.93;;
19869;SDS011;10097;50.862;4.696;2023-06-14T07:31:24;17.45;;;5.80;;
19869;SDS011;10097;50.862;4.696;2023-06-14T07:33:51;16.13;;;7.03;;
19869;SDS011;10097;50.862;4.696;2023-06-14T07:36:17;16.33;;;4.97;;
19869;SDS011;10097;50.862;4.696;2023-06-14T07:38:43;12.77;;;5.30;;
19869;SDS011;10097;50.862;4.696;2023-06-14T07:41:09;10.05;;;4.85;;
19869;SDS011;10097;50.862;4.696;2023-06-14T07:43:35;14.60;;;5.32;;
19869;SDS011;10097;50.862;4.696;2023-06-14T07:46:00;14.45;;;5.25;;
19869;SDS011;10097;50.862;4.696;2023-06-14T07:48:27;13.93;;;5.55;;
19869;SDS011;10097;50.862;4.696;2023-06-14T07:50:53;15.13;;;5.32;;
19869;SDS011;10097;50.862;4.696;2023-06-14T07:53:18;13.05;;;4.85;;
19869;SDS011;10097;50.862;4.696;2023-06-14T07:55:44;13.02;;;4.70;;
19869;SDS011;10097;50.862;4.696;2023-06-14T07:58:12;10.55;;;5.43;;
19869;SDS011;10097;50.862;4.696;2023-06-14T08:00:38;17.10;;;4.68;;
19869;SDS011;10097;50.862;4.696;2023-06-14T08:03:03;10.38;;;4.95;;
19869;SDS011;10097;50.862;4.696;2023-06-14T08:05:29;13.85;;;5.93;;
19869;SDS011;10097;50.862;4.696;2023-06-14T08:07:55;15.52;;;5.70;;
19869;SDS011;10097;50.862;4.696;2023-06-14T08:10:24;10.88;;;5.25;;
19869;SDS011;10097;50.862;4.696;2023-06-14T08:12:52;15.00;;;5.43;;
19869;SDS011;10097;50.862;4.696;2023-06-14T08:15:20;12.35;;;5.50;;
19869;SDS011;10097;50.862;4.696;2023-06-14T08:17:46;13.43;;;5.47;;
19869;SDS011;10097;50.862;4.696;2023-06-14T08:20:12;20.35;;;5.43;;
19869;SDS011;10097;50.862;4.696;2023-06-14T08:22:42;13.32;;;5.60;;
19869;SDS011;10097;50.862;4.696;2023-06-14T08:25:08;16.90;;;5.18;;
19869;SDS011;10097;50.862;4.696;2023-06-14T08:27:34;14.63;;;5.18;;
19869;SDS011;10097;50.862;4.696;2023-06-14T08:30:00;11.13;;;4.47;;
19869;SDS011;10097;50.862;4.696;2023-06-14T08:32:27;11.73;;;5.10;;
19869;SDS011;10097;50.862;4.696;2023-06-14T08:34:53;13.00;;;5.60;;
19869;SDS011;10097;50.862;4.696;2023-06-14T08:37:18;14.77;;;5.75;;
19869;SDS011;10097;50.862;4.696;2023-06-14T08:39:45;13.50;;;5.45;;
19869;SDS011;10097;50.862;4.696;2023-06-14T08:42:11;16.73;;;4.88;;
19869;SDS011;10097;50.862;4.696;2023-06-14T08:44:39;12.45;;;5.28;;
19869;SDS011;10097;50.862;4.696;2023-06-14T08:47:05;13.07;;;5.43;;
19869;SDS011;10097;50.862;4.696;2023-06-14T08:49:33;12.38;;;4.80;;
19869;SDS011;10097;50.862;4.696;2023-06-14T08:51:59;13.15;;;4.97;;
19869;SDS011;10097;50.862;4.696;2023-06-14T08:54:29;12.60;;;5.25;;
19869;SDS011;10097;50.862;4.696;2023-06-14T08:56:58;11.25;;;4.63;;
19869;SDS011;10097;50.862;4.696;2023-06-14T08:59:25;15.27;;;5.45;;
19869;SDS011;10097;50.862;4.696;2023-06-14T09:01:52;8.48;;;4.97;;
19869;SDS011;10097;50.862;4.696;2023-06-14T09:04:22;10.13;;;5.15;;
19869;SDS011;10097;50.862;4.696;2023-06-14T09:06:49;9.48;;;4.57;;
19869;SDS011;10097;50.862;4.696;2023-06-14T09:09:19;12.75;;;5.00;;
19869;SDS011;10097;50.862;4.696;2023-06-14T09:11:46;14.52;;;5.00;;
19869;SDS011;10097;50.862;4.696;2023-06-14T09:14:12;9.98;;;4.75;;
19869;SDS011;10097;50.862;4.696;2023-06-14T09:16:37;14.02;;;4.80;;
19869;SDS011;10097;50.862;4.696;2023-06-14T09:19:04;15.60;;;5.38;;
19869;SDS011;10097;50.862;4.696;2023-06-14T09:21:31;12.27;;;4.82;;
19869;SDS011;10097;50.862;4.696;2023-06-14T09:24:02;17.95;;;4.97;;
19869;SDS011;10097;50.862;4.696;2023-06-14T09:26:30;15.40;;;5.22;;
19869;SDS011;10097;50.862;4.696;2023-06-14T09:28:58;9.93;;;4.60;;
19869;SDS011;10097;50.862;4.696;2023-06-14T09:31:23;12.93;;;4.78;;
19869;SDS011;10097;50.862;4.696;2023-06-14T09:33:50;11.65;;;4.80;;
19869;SDS011;10097;50.862;4.696;2023-06-14T09:36:22;14.32;;;4.53;;
19869;SDS011;10097;50.862;4.696;2023-06-14T09:38:59;17.63;;;5.13;;
19869;SDS011;10097;50.862;4.696;2023-06-14T09:44:05;11.77;;;4.53;;
19869;SDS011;10097;50.862;4.696;2023-06-14T09:46:35;12.00;;;4.53;;
19869;SDS011;10097;50.862;4.696;2023-06-14T09:49:02;10.27;;;4.22;;
19869;SDS011;10097;50.862;4.696;2023-06-14T09:51:29;9.80;;;4.00;;
19869;SDS011;10097;50.862;4.696;2023-06-14T09:54:01;11.18;;;5.15;;
19869;SDS011;10097;50.862;4.696;2023-06-14T09:56:33;11.68;;;4.05;;
19869;SDS011;10097;50.862;4.696;2023-06-14T09:59:03;9.32;;;3.92;;
19869;SDS011;10097;50.862;4.696;2023-06-14T10:01:31;12.45;;;4.28;;
19869;SDS011;10097;50.862;4.696;2023-06-14T10:04:04;14.82;;;4.32;;
19869;SDS011;10097;50.862;4.696;2023-06-14T10:06:32;12.27;;;4.20;;
19869;SDS011;10097;50.862;4.696;2023-06-14T10:09:06;8.38;;;3.65;;
19869;SDS011;10097;50.862;4.696;2023-06-14T10:11:33;8.93;;;3.53;;
19869;SDS011;10097;50.862;4.696;2023-06-14T10:14:00;14.77;;;4.22;;
19869;SDS011;10097;50.862;4.696;2023-06-14T10:16:34;9.80;;;4.15;;
19869;SDS011;10097;50.862;4.696;2023-06-14T10:19:15;8.98;;;3.80;;
19869;SDS011;10097;50.862;4.696;2023-06-14T10:21:57;9.23;;;3.30;;
19869;SDS011;10097;50.862;4.696;2023-06-14T10:24:30;12.52;;;4.00;;
19869;SDS011;10097;50.862;4.696;2023-06-14T10:26:59;11.77;;;3.88;;
19869;SDS011;10097;50.862;4.696;2023-06-14T10:29:26;7.60;;;3.20;;
19869;SDS011;10097;50.862;4.696;2023-06-14T10:31:57;9.60;;;3.70;;
19869;SDS011;10097;50.862;4.696;2023-06-14T10:34:28;9.35;;;3.50;;
19869;SDS011;10097;50.862;4.696;2023-06-14T10:39:31;11.18;;;3.28;;
19869;SDS011;10097;50.862;4.696;2023-06-14T10:42:01;9.38;;;3.63;;
19869;SDS011;10097;50.862;4.696;2023-06-14T10:47:09;14.88;;;3.97;;
19869;SDS011;10097;50.862;4.696;2023-06-14T10:50:08;9.55;;;3.78;;
19869;SDS011;10097;50.862;4.696;2023-06-14T10:52:38;7.95;;;3.50;;
19869;SDS011;10097;50.862;4.696;2023-06-14T10:55:12;9.10;;;3.13;;
19869;SDS011;10097;50.862;4.696;2023-06-14T11:00:25;8.32;;;3.50;;
19869;SDS011;10097;50.862;4.696;2023-06-14T11:11:00;9.80;;;3.72;;
19869;SDS011;10097;50.862;4.696;2023-06-14T11:13:33;13.13;;;3.03;;
19869;SDS011;10097;50.862;4.696;2023-06-14T11:16:12;8.48;;;2.85;;
19869;SDS011;10097;50.862;4.696;2023-06-14T11:18:39;10.73;;;2.78;;
19869;SDS011;10097;50.862;4.696;2023-06-14T11:21:06;11.50;;;3.30;;
19869;SDS011;10097;50.862;4.696;2023-06-14T11:23:36;11.38;;;3.15;;
19869;SDS011;10097;50.862;4.696;2023-06-14T11:26:04;8.77;;;3.00;;
19869;SDS011;10097;50.862;4.696;2023-06-14T11:28:39;7.25;;;3.15;;
19869;SDS011;10097;50.862;4.696;2023-06-14T11:31:06;8.18;;;2.97;;
19869;SDS011;10097;50.862;4.696;2023-06-14T11:33:32;10.15;;;3.15;;
19869;SDS011;10097;50.862;4.696;2023-06-14T11:36:01;8.48;;;2.53;;
19869;SDS011;10097;50.862;4.696;2023-06-14T11:38:27;9.38;;;3.45;;
19869;SDS011;10097;50.862;4.696;2023-06-14T11:40:53;6.88;;;2.90;;
19869;SDS011;10097;50.862;4.696;2023-06-14T11:43:27;10.70;;;3.42;;
19869;SDS011;10097;50.862;4.696;2023-06-14T11:45:54;7.25;;;3.45;;
19869;SDS011;10097;50.862;4.696;2023-06-14T11:48:19;7.07;;;2.80;;
19869;SDS011;10097;50.862;4.696;2023-06-14T11:50:49;7.32;;;3.28;;
19869;SDS011;10097;50.862;4.696;2023-06-14T11:53:16;7.80;;;3.05;;
19869;SDS011;10097;50.862;4.696;2023-06-14T11:55:42;15.30;;;3.40;;
19869;SDS011;10097;50.862;4.696;2023-06-14T11:58:10;10.27;;;3.15;;
19869;SDS011;10097;50.862;4.696;2023-06-14T12:00:36;10.50;;;3.08;;
19869;SDS011;10097;50.862;4.696;2023-06-14T12:03:02;18.30;;;3.50;;
19869;SDS011;10097;50.862;4.696;2023-06-14T12:05:28;5.00;;;2.45;;
19869;SDS011;10097;50.862;4.696;2023-06-14T12:07:58;9.35;;;2.83;;
19869;SDS011;10097;50.862;4.696;2023-06-14T12:10:28;5.68;;;2.67;;
19869;SDS011;10097;50.862;4.696;2023-06-14T12:12:58;14.40;;;3.17;;
19869;SDS011;10097;50.862;4.696;2023-06-14T12:15:24;10.70;;;3.10;;
19869;SDS011;10097;50.862;4.696;2023-06-14T12:17:54;10.48;;;2.42;;
19869;SDS011;10097;50.862;4.696;2023-06-14T12:20:22;8.88;;;2.97;;
19869;SDS011;10097;50.862;4.696;2023-06-14T12:22:54;9.20;;;2.88;;
19869;SDS011;10097;50.862;4.696;2023-06-14T12:25:34;7.47;;;2.50;;
19869;SDS011;10097;50.862;4.696;2023-06-14T12:28:08;9.00;;;2.55;;
19869;SDS011;10097;50.862;4.696;2023-06-14T12:30:35;5.55;;;2.63;;
19869;SDS011;10097;50.862;4.696;2023-06-14T12:33:03;12.02;;;2.60;;
19869;SDS011;10097;50.862;4.696;2023-06-14T12:35:30;7.63;;;2.80;;
19869;SDS011;10097;50.862;4.696;2023-06-14T12:38:06;9.45;;;2.60;;
19869;SDS011;10097;50.862;4.696;2023-06-14T12:40:37;6.05;;;2.53;;
19869;SDS011;10097;50.862;4.696;2023-06-14T12:43:04;7.38;;;2.50;;
19869;SDS011;10097;50.862;4.696;2023-06-14T12:45:30;9.63;;;2.70;;
19869;SDS011;10097;50.862;4.696;2023-06-14T12:47:56;9.45;;;2.10;;
19869;SDS011;10097;50.862;4.696;2023-06-14T12:50:24;6.80;;;2.33;;
19869;SDS011;10097;50.862;4.696;2023-06-14T12:52:50;8.90;;;2.45;;
19869;SDS011;10097;50.862;4.696;2023-06-14T12:55:16;8.52;;;2.92;;
19869;SDS011;10097;50.862;4.696;2023-06-14T12:57:43;6.28;;;2.33;;
19869;SDS011;10097;50.862;4.696;2023-06-14T13:00:10;7.80;;;2.30;;
19869;SDS011;10097;50.862;4.696;2023-06-14T13:02:37;9.60;;;2.10;;
19869;SDS011;10097;50.862;4.696;2023-06-14T13:05:06;11.40;;;2.72;;
19869;SDS011;10097;50.862;4.696;2023-06-14T13:07:32;8.25;;;2.33;;
19869;SDS011;10097;50.862;4.696;2023-06-14T13:09:57;5.65;;;2.30;;
19869;SDS011;10097;50.862;4.696;2023-06-14T13:12:23;7.47;;;2.10;;
19869;SDS011;10097;50.862;4.696;2023-06-14T13:14:49;10.07;;;1.90;;
19869;SDS011;10097;50.862;4.696;2023-06-14T13:17:14;7.18;;;2.05;;
19869;SDS011;10097;50.862;4.696;2023-06-14T13:19:40;4.95;;;2.28;;
19869;SDS011;10097;50.862;4.696;2023-06-14T13:22:07;7.35;;;1.85;;
19869;SDS011;10097;50.862;4.696;2023-06-14T13:24:33;6.43;;;1.67;;
19869;SDS011;10097;50.862;4.696;2023-06-14T13:26:59;4.82;;;1.60;;
19869;SDS011;10097;50.862;4.696;2023-06-14T13:29:25;4.78;;;1.70;;
19869;SDS011;10097;50.862;4.696;2023-06-14T13:32:00;5.85;;;2.55;;
19869;SDS011;10097;50.862;4.696;2023-06-14T13:34:26;5.22;;;1.80;;
19869;SDS011;10097;50.862;4.696;2023-06-14T13:36:55;4.97;;;1.73;;
19869;SDS011;10097;50.862;4.696;2023-06-14T13:39:23;14.73;;;1.60;;
19869;SDS011;10097;50.862;4.696;2023-06-14T13:41:50;6.03;;;1.80;;
19869;SDS011;10097;50.862;4.696;2023-06-14T13:44:15;4.53;;;1.50;;
19869;SDS011;10097;50.862;4.696;2023-06-14T13:46:46;5.97;;;1.55;;
19869;SDS011;10097;50.862;4.696;2023-06-14T13:49:12;6.95;;;1.70;;
19869;SDS011;10097;50.862;4.696;2023-06-14T13:51:41;4.03;;;1.50;;
19869;SDS011;10097;50.862;4.696;2023-06-14T13:54:11;8.88;;;1.73;;
19869;SDS011;10097;50.862;4.696;2023-06-14T13:56:40;4.90;;;1.55;;
19869;SDS011;10097;50.862;4.696;2023-06-14T13:59:06;2.53;;;1.30;;
19869;SDS011;10097;50.862;4.696;2023-06-14T14:01:34;4.03;;;1.35;;
19869;SDS011;10097;50.862;4.696;2023-06-14T14:04:00;3.30;;;1.52;;
19869;SDS011;10097;50.862;4.696;2023-06-14T14:06:26;4.95;;;1.60;;
19869;SDS011;10097;50.862;4.696;2023-06-14T14:08:52;6.13;;;1.55;;
19869;SDS011;10097;50.862;4.696;2023-06-14T14:11:18;5.53;;;1.85;;
19869;SDS011;10097;50.862;4.696;2023-06-14T14:13:44;2.78;;;1.30;;
19869;SDS011;10097;50.862;4.696;2023-06-14T14:16:10;6.20;;;1.58;;
19869;SDS011;10097;50.862;4.696;2023-06-14T14:18:36;6.80;;;1.70;;
19869;SDS011;10097;50.862;4.696;2023-06-14T14:21:02;4.38;;;1.70;;
19869;SDS011;10097;50.862;4.696;2023-06-14T14:23:35;7.25;;;1.65;;
19869;SDS011;10097;50.862;4.696;2023-06-14T14:26:01;7.65;;;1.65;;
19869;SDS011;10097;50.862;4.696;2023-06-14T14:28:29;3.88;;;1.65;;
19869;SDS011;10097;50.862;4.696;2023-06-14T14:30:55;3.55;;;1.60;;
19869;SDS011;10097;50.862;4.696;2023-06-14T14:33:21;5.40;;;1.75;;
19869;SDS011;10097;50.862;4.696;2023-06-14T14:35:47;4.13;;;1.52;;
19869;SDS011;10097;50.862;4.696;2023-06-14T14:38:13;2.72;;;1.55;;
19869;SDS011;10097;50.862;4.696;2023-06-14T14:40:43;8.75;;;1.77;;
19869;SDS011;10097;50.862;4.696;2023-06-14T14:43:12;5.47;;;1.75;;
19869;SDS011;10097;50.862;4.696;2023-06-14T14:45:41;4.50;;;1.70;;
19869;SDS011;10097;50.862;4.696;2023-06-14T14:48:11;5.25;;;1.70;;
19869;SDS011;10097;50.862;4.696;2023-06-14T14:50:39;7.28;;;1.67;;
19869;SDS011;10097;50.862;4.696;2023-06-14T14:53:08;4.68;;;1.67;;
19869;SDS011;10097;50.862;4.696;2023-06-14T14:55:34;5.85;;;1.80;;
19869;SDS011;10097;50.862;4.696;2023-06-14T14:58:02;5.75;;;2.35;;
19869;SDS011;10097;50.862;4.696;2023-06-14T15:00:28;4.93;;;1.70;;
19869;SDS011;10097;50.862;4.696;2023-06-14T15:02:56;6.22;;;1.42;;